Airfield :
LOGIN :

Register | Disclaimer

   EN    FR    IT 

 










Legend :    VFR   Marginal VFR   IFR   Intensive IFR   Very Intensive IFR
Visi :
Ceiling :
>= 8 km
>= 3000ft
5 to 8 km
1000 to 3000 ft
1500m to 5 km
500 to 1000 ft
800 to 1500m
200 to 500 ft
< 800m
< 200 ft
Symbols :   Thunderstorms  Fog  Heavy snow  Heavy precipitations  Wind > 20 kt
SIGMETs :     Misc.  Thunderstorms  Icing  Turbulence  Mountain Waves  Volcanic Ashes






- Airport Elevation : 286 ft
- IATA code : FFD


EGVA - RAF Fairford

CURRENT METAR :
  • 181304Z AUTO 25011KT M -DZ M M A3019 RMK AO2 DZB04 SLPNO ALSTG ESTMD RVRNO FZRANO VISNO RWY09 $

EXPIRED METARs :
  • 181055Z 27012KT 9999 SCT040 A3023 09/01 RMK AO2A SLPNO RVRNO FZRANO WIND DATA ESTMD ALSTG ESTMD $
  • 180955Z 28006KT 9999 SCT040 A3023 09/01 RMK AO2A SLPNO RVRNO FZRANO WIND DATA ESTMD ALSTG ESTMD$
  • 180900Z AUTO 00000KT 9999 -DZ SCT022 08/02 A3023 RMK AO2 SLP242 FZRANO $
  • 180820Z AUTO 09003KT M -DZ M M A3023 RMK AO2 DZB20 PRESRR SLPNO ALSTG ESTMD RVRNO FZRANO $
  • 180755Z 36006KT 9999 FEW040 SCT180 06/02 A3020 RMK AO2A SLPNO RVRNO FZRANO WIND DATA ESTMD ALSTG ESTMD $

TAF TAF EGVA
Valid from the 18 at 05:00 until the 19 at 11:00 UTC


180500Z 1805/1911 VRB06KT 9999 FEW100 QNH3018INS
BECMG 1808/1809 VRB06KT 9999 FEW030 SCT100 QNH3020INS
BECMG 1814/1815 25012G18KT 9999 SCT030 BKN120 BKN200 QNH3013INS
BECMG 1902/1903 27012KT 9999 SCT008 OVC015 510013 QNH3000INS
BECMG 1907/1908 32015G25KT 9999 BKN015 OVC022 510013 QNH3003INS TX11/1815Z TN04/1806Z



MET'MAP, your aeronautical weather chart ! - Copyright ORBIFLY December 2007 - Disclaimer

ORBIFLY MET'MAP TEAM :

Programming & Development : Alexandra Zaïnal
Original concept : Baudouin d'Aumeries
Technical & hardware support : Manuel Goepfert
Assistance : Marc-Olivier Méhu




SOURCES & CREDITS :

   NOAA